SAVV/VDM METAR and TAF weather

Enter ICAO airport designator
Station Type Date Time Source
SAVV METAR 2019/04/22 10:30 UTC NOAA

SAVV 221030Z 34003KT 1200 BR NSC 02/02 Q1019


Station Type Date Time Source
SAVV Decoded METAR 2019/04/22 10:30 UTC NOAA

Viedma Aerodrome, Argentina (SAVV) 40-51S 063-01W 7M
Apr 22, 2019 - 06:30 AM EDT / 2019.04.22 1030 UTC
Wind: from the NNW (340 degrees) at 3 MPH (3 KT):0
Visibility: less than 1 mile:0
Weather: mist
Temperature: 35 F (2 C)
Dew Point: 35 F (2 C)
Relative Humidity: 100%
Pressure (altimeter): 30.09 in. Hg (1019 hPa)
ob: SAVV 221030Z 34003KT 1200 BR NSC 02/02 Q1019
cycle: 10

Station Type Date Time Source
SAVV TAF 2019/04/15 06:06 UTC NOAA

TAF SAVV 150500Z 1506/1606 VRB03KT CAVOK TX22/1518Z TN04/1511Z
BECMG 1508/1510 36010KT
BECMG 1517/1520 27005KT

Example: see airport list